Klamath Falls Airport
KLMT : now visible

Airfield :











YOU CAN JOIN US ON...

 
LOGIN :

Register | Disclaimer

   EN    FR    IT 

 









Legend :    VFR   Marginal VFR   IFR   Intensive IFR   Very Intensive IFR
Visi :
Ceiling :
>= 8 km
>= 3000ft
5 to 8 km
1000 to 3000 ft
1500m to 5 km
500 to 1000 ft
800 to 1500m
200 to 500 ft
< 800m
< 200 ft
Symbols :   Thunderstorms  Fog  Heavy snow  Heavy precipitations  Wind > 20 kt






- Airport Elevation : 4095 ft
- IATA code : LMT


KLMT - Klamath Falls

CURRENT METAR :
  • 231453Z 26007KT 10SM FEW049 SCT060 02/M03 A3016 RMK AO2 SLP219 T00171028 51012

EXPIRED METARs :
  • 231353Z AUTO 18005KT 10SM FEW065 M03/M06 A3015 RMK AO2 SLP218 T10331056
  • 231253Z AUTO VRB03KT 10SM BKN090 M03/M07 A3014 RMK AO2 SLP206 T10281067

TAF KLMT
Valid from the 23 at 12:00 until the 24 at 12:00 UTC


231135Z 2312/2412 VRB03KT P6SM SCT150
FM231800 27018G29KT P6SM BKN050
FM240300 28009KT P6SM SCT035



MET'MAP, your aeronautical weather chart ! - Copyright ORBIFLY December 2007 - Disclaimer

ORBIFLY MET'MAP TEAM :

Programming & Development : Alexandra Zaïnal
Concept & original design : Baudouin d'Aumeries
Assistance for programming : Marc-Olivier Méhu
Technical & hardware support : Manuel Goepfert

Contact : metmap@orbifly.com




SOURCES & CREDITS :

   NOAA       Earth
Advisory